Time;durP1;ratioP1;P1;durP2;ratioP2;P2;SDS_P1;SDS_P2;PMS_P1;PMS_P2;Temp;Humidity;BMP_temperature;BMP_pressure;BME280_temperature;BME280_humidity;BME280_pressure;Samples;Min_cycle;Max_cycle;Signal;HPM_P1;HPM_P2
2024/03/19 00:00:48;;;;;;;36.50;16.95;;;10.60;78.90;;;;;;5011111;28;20389;-72
2024/03/19 00:03:14;;;;;;;37.80;17.17;;;10.60;79.10;;;;;;5010909;28;20400;-72
2024/03/19 00:05:39;;;;;;;32.15;17.80;;;10.60;79.00;;;;;;5010867;28;20411;-71
2024/03/19 00:08:05;;;;;;;39.03;16.83;;;10.60;78.60;;;;;;5013525;28;20395;-71
2024/03/19 00:10:31;;;;;;;34.77;17.70;;;10.60;78.70;;;;;;5015106;28;20381;-72
2024/03/19 00:12:56;;;;;;;33.33;17.60;;;10.60;79.20;;;;;;5014760;28;20397;-71
2024/03/19 00:15:22;;;;;;;34.80;16.93;;;10.60;79.20;;;;;;5014643;28;20879;-71
2024/03/19 00:17:48;;;;;;;34.20;17.03;;;10.60;79.20;;;;;;5014663;28;20967;-71
2024/03/19 00:20:13;;;;;;;30.70;17.17;;;10.60;78.60;;;;;;5014693;28;20388;-70
2024/03/19 00:22:39;;;;;;;30.30;16.48;;;10.60;78.30;;;;;;5015020;28;20411;-71
2024/03/19 00:25:08;;;;;;;34.63;15.60;;;10.60;78.00;;;;;;5015154;28;20513;-72
2024/03/19 00:27:34;;;;;;;31.77;16.50;;;10.60;78.40;;;;;;5014806;28;20906;-70
2024/03/19 00:30:00;;;;;;;35.42;16.42;;;10.60;78.30;;;;;;5015839;28;20488;-73
2024/03/19 00:32:29;;;;;;;33.72;17.80;;;10.60;78.80;;;;;;5016689;28;20716;-71
2024/03/19 00:34:55;;;;;;;30.98;16.73;;;10.60;78.30;;;;;;5017261;28;20393;-72
2024/03/19 00:37:21;;;;;;;34.05;17.63;;;10.60;79.80;;;;;;5014734;28;20411;-71
2024/03/19 00:39:46;;;;;;;33.80;17.47;;;10.80;76.00;;;;;;5015503;28;20822;-70
2024/03/19 00:42:12;;;;;;;29.40;15.10;;;10.90;74.20;;;;;;5014644;28;20543;-71
2024/03/19 00:44:39;;;;;;;35.20;16.90;;;10.80;74.20;;;;;;5014150;28;20381;-70
2024/03/19 00:47:04;;;;;;;26.83;15.68;;;10.80;74.40;;;;;;5014323;28;20423;-71
2024/03/19 00:49:30;;;;;;;27.93;15.50;;;10.70;75.40;;;;;;5014101;28;20428;-72
2024/03/19 00:51:56;;;;;;;31.50;16.03;;;10.70;75.10;;;;;;4996399;28;20396;-72
2024/03/19 00:54:22;;;;;;;34.33;16.30;;;10.70;75.30;;;;;;5013928;28;20412;-71
2024/03/19 00:56:47;;;;;;;29.55;16.00;;;10.70;76.40;;;;;;5013960;28;20520;-70
2024/03/19 00:59:13;;;;;;;29.50;16.00;;;10.60;76.50;;;;;;5013859;28;20432;-71
2024/03/19 01:01:38;;;;;;;32.33;15.40;;;10.60;76.90;;;;;;5013732;28;20439;-71
2024/03/19 01:04:07;;;;;;;33.77;15.50;;;10.60;77.40;;;;;;5014056;28;20385;-71
2024/03/19 01:06:33;;;;;;;28.98;15.85;;;10.60;76.90;;;;;;5013662;28;20399;-70
2024/03/19 01:08:59;;;;;;;28.85;15.52;;;10.60;76.90;;;;;;5013805;28;20455;-71
2024/03/19 01:11:25;;;;;;;27.27;15.80;;;10.60;76.80;;;;;;5013689;28;20397;-71
2024/03/19 01:13:50;;;;;;;33.72;15.00;;;10.60;76.30;;;;;;4996052;28;20381;-70
2024/03/19 01:16:16;;;;;;;29.63;15.38;;;10.60;75.70;;;;;;5013820;28;20400;-71
2024/03/19 01:18:41;;;;;;;29.37;15.30;;;10.60;75.40;;;;;;5013194;28;20384;-71
2024/03/19 01:21:07;;;;;;;29.60;14.90;;;10.60;75.00;;;;;;5012905;28;20547;-72
2024/03/19 01:23:32;;;;;;;25.20;14.80;;;10.60;74.70;;;;;;5013730;28;20393;-71
2024/03/19 01:25:58;;;;;;;29.77;15.23;;;10.60;75.50;;;;;;5014136;28;20400;-71
2024/03/19 01:28:23;;;;;;;32.50;15.38;;;10.60;75.10;;;;;;5013652;28;20389;-71
2024/03/19 01:30:49;;;;;;;34.33;15.60;;;10.50;75.90;;;;;;5013204;28;20561;-71
2024/03/19 01:33:15;;;;;;;27.77;15.10;;;10.50;77.00;;;;;;5013543;28;20384;-71
2024/03/19 01:35:40;;;;;;;32.27;14.70;;;10.40;77.50;;;;;;4995970;28;20413;-70
2024/03/19 01:38:06;;;;;;;29.80;15.07;;;10.40;77.70;;;;;;5026268;28;20431;-69
2024/03/19 01:40:32;;;;;;;29.65;14.68;;;10.30;77.90;;;;;;5034449;28;20389;-70
2024/03/19 01:42:58;;;;;;;34.97;16.20;;;10.30;79.00;;;;;;5026728;28;20431;-70
2024/03/19 01:45:24;;;;;;;24.03;14.77;;;10.20;80.40;;;;;;5034769;28;20381;-70
2024/03/19 01:47:51;;;;;;;33.08;15.05;;;10.10;81.00;;;;;;5033620;28;20393;-70
2024/03/19 01:50:17;;;;;;;33.77;15.33;;;10.00;82.50;;;;;;5023837;28;20439;-70
2024/03/19 01:52:44;;;;;;;34.10;14.80;;;9.90;82.90;;;;;;5001471;28;20397;-70
2024/03/19 01:55:11;;;;;;;29.13;14.52;;;9.80;84.30;;;;;;5017013;28;20384;-70
2024/03/19 01:57:37;;;;;;;35.85;14.75;;;9.70;85.70;;;;;;5016663;28;20415;-71
2024/03/19 02:00:07;;;;;;;29.40;15.20;;;9.70;86.80;;;;;;5016702;28;20393;-71
2024/03/19 02:02:35;;;;;;;31.08;14.98;;;9.70;87.90;;;;;;5016769;28;20404;-70
2024/03/19 02:05:03;;;;;;;36.42;14.30;;;9.60;87.90;;;;;;5017048;28;20388;-70
2024/03/19 02:07:28;;;;;;;34.63;14.23;;;9.50;88.40;;;;;;4999492;28;20428;-71
2024/03/19 02:09:57;;;;;;;27.92;14.98;;;9.50;89.80;;;;;;5016918;28;20400;-71
2024/03/19 02:12:23;;;;;;;29.15;15.15;;;9.40;89.70;;;;;;5018450;28;20388;-71
2024/03/19 02:14:50;;;;;;;27.45;14.50;;;9.30;91.60;;;;;;5013587;28;20839;-72
2024/03/19 02:17:16;;;;;;;26.65;14.80;;;9.30;92.80;;;;;;5013536;28;20483;-72
2024/03/19 02:19:42;;;;;;;29.90;14.52;;;9.30;93.70;;;;;;5012755;28;20449;-72
2024/03/19 02:22:09;;;;;;;29.40;14.70;;;9.20;94.30;;;;;;5012981;28;20473;-72
2024/03/19 02:24:39;;;;;;;26.70;14.10;;;9.20;94.10;;;;;;5012948;28;20933;-71
2024/03/19 02:27:05;;;;;;;28.40;13.70;;;9.30;94.40;;;;;;5012804;28;20420;-71
2024/03/19 02:29:30;;;;;;;26.08;14.02;;;9.20;94.40;;;;;;5011841;28;20384;-71
2024/03/19 02:31:56;;;;;;;25.58;13.85;;;9.30;94.80;;;;;;5013110;28;20403;-70
2024/03/19 02:34:22;;;;;;;25.83;13.18;;;9.30;94.00;;;;;;5012771;28;20392;-72
2024/03/19 02:36:47;;;;;;;22.70;13.25;;;9.30;93.90;;;;;;5012401;28;20899;-71
2024/03/19 02:39:13;;;;;;;28.20;13.88;;;9.40;93.40;;;;;;4994552;28;20488;-71
2024/03/19 02:41:39;;;;;;;25.58;12.75;;;9.40;92.10;;;;;;5012452;28;20393;-72
2024/03/19 02:44:05;;;;;;;25.27;13.35;;;9.50;90.80;;;;;;5012248;28;20381;-70
2024/03/19 02:46:30;;;;;;;24.48;13.23;;;9.50;89.60;;;;;;5012459;28;20389;-69
2024/03/19 02:48:56;;;;;;;26.17;12.50;;;9.60;89.40;;;;;;5012257;28;20756;-70
2024/03/19 02:51:23;;;;;;;24.87;12.93;;;9.70;88.50;;;;;;4994457;28;20419;-74
2024/03/19 02:53:48;;;;;;;24.20;12.40;;;9.60;87.90;;;;;;5012246;28;20811;-71
2024/03/19 02:56:14;;;;;;;26.92;12.30;;;9.70;87.00;;;;;;5012125;28;20405;-71
2024/03/19 02:58:39;;;;;;;23.23;12.50;;;9.80;86.80;;;;;;5011988;28;20897;-72
2024/03/19 03:01:05;;;;;;;25.02;11.45;;;9.80;86.60;;;;;;5011990;28;20388;-71
2024/03/19 03:03:31;;;;;;;22.55;12.52;;;9.80;84.80;;;;;;4994331;28;20455;-70
2024/03/19 03:05:57;;;;;;;22.15;12.25;;;9.80;85.10;;;;;;5012025;28;20400;-70
2024/03/19 03:08:22;;;;;;;24.65;12.05;;;9.80;83.90;;;;;;5012241;28;20392;-70
2024/03/19 03:10:48;;;;;;;29.02;12.57;;;9.90;83.50;;;;;;5011643;28;20872;-72
2024/03/19 03:13:13;;;;;;;24.83;11.30;;;9.80;82.70;;;;;;5012000;28;20389;-71
2024/03/19 03:15:39;;;;;;;23.17;11.80;;;9.80;82.80;;;;;;5011779;28;20404;-71
2024/03/19 03:18:05;;;;;;;25.97;12.40;;;9.80;82.90;;;;;;5011880;28;20936;-71
2024/03/19 03:20:31;;;;;;;23.80;11.18;;;9.90;82.70;;;;;;5011435;28;20479;-72
2024/03/19 03:22:57;;;;;;;22.55;11.57;;;9.90;82.10;;;;;;5011470;28;20871;-71
2024/03/19 03:25:22;;;;;;;22.17;10.63;;;9.90;81.70;;;;;;5011449;28;20404;-71
2024/03/19 03:27:48;;;;;;;24.27;12.50;;;9.90;81.40;;;;;;5011387;28;20380;-70
2024/03/19 03:30:14;;;;;;;26.10;12.00;;;9.90;81.60;;;;;;5011298;28;20468;-70
2024/03/19 03:32:42;;;;;;;26.17;11.93;;;9.90;82.60;;;;;;5011046;28;20411;-72
2024/03/19 03:35:09;;;;;;;24.80;11.82;;;9.80;82.80;;;;;;5011427;28;20459;-73
2024/03/19 03:37:34;;;;;;;24.20;12.95;;;9.80;83.40;;;;;;5011432;28;20799;-72
2024/03/19 03:40:01;;;;;;;24.95;11.57;;;9.80;82.40;;;;;;5012083;28;20472;-72
2024/03/19 03:42:27;;;;;;;22.30;11.90;;;9.80;82.50;;;;;;5015512;28;20389;-71
2024/03/19 03:44:53;;;;;;;28.25;12.50;;;9.80;83.70;;;;;;4995940;28;20932;-72
2024/03/19 03:47:18;;;;;;;19.08;11.95;;;9.90;83.40;;;;;;5011755;28;20388;-71
2024/03/19 03:49:45;;;;;;;26.15;13.10;;;9.80;82.80;;;;;;5011190;28;20459;-72
2024/03/19 03:52:11;;;;;;;22.83;12.05;;;9.80;83.60;;;;;;5011151;28;20468;-70
2024/03/19 03:54:37;;;;;;;23.77;11.73;;;9.90;82.60;;;;;;5011231;28;20417;-71
2024/03/19 03:57:03;;;;;;;23.50;12.00;;;9.90;82.60;;;;;;5011150;28;20404;-72
2024/03/19 03:59:28;;;;;;;18.93;11.43;;;9.80;82.00;;;;;;5010787;28;20415;-71
2024/03/19 04:01:54;;;;;;;19.23;11.60;;;9.80;82.20;;;;;;5010947;28;20867;-72
2024/03/19 04:04:20;;;;;;;23.73;12.23;;;9.80;82.90;;;;;;5010994;28;20860;-71
2024/03/19 04:06:48;;;;;;;22.00;12.00;;;9.70;84.00;;;;;;5011455;28;20395;-71
2024/03/19 04:09:14;;;;;;;20.60;11.85;;;9.60;84.60;;;;;;5010920;28;20889;-71
2024/03/19 04:11:40;;;;;;;21.85;10.73;;;9.60;85.40;;;;;;5010842;28;20801;-70
2024/03/19 04:14:05;;;;;;;19.50;11.33;;;9.60;84.40;;;;;;5010918;28;20392;-72
2024/03/19 04:16:31;;;;;;;18.97;11.20;;;9.50;85.90;;;;;;4993405;28;20396;-72
2024/03/19 04:18:57;;;;;;;24.10;12.07;;;9.50;86.80;;;;;;5010738;28;20400;-72
2024/03/19 04:21:23;;;;;;;20.83;12.17;;;9.50;86.90;;;;;;4993278;28;20905;-71
2024/03/19 04:23:48;;;;;;;24.20;12.20;;;9.50;87.20;;;;;;5010585;28;20404;-72
2024/03/19 04:26:14;;;;;;;24.87;12.30;;;9.50;87.50;;;;;;5011168;28;20889;-72
2024/03/19 04:28:39;;;;;;;24.37;11.30;;;9.50;88.00;;;;;;5010786;28;20470;-71
2024/03/19 04:31:05;;;;;;;19.83;12.07;;;9.60;86.90;;;;;;5010683;28;20384;-72
2024/03/19 04:33:31;;;;;;;22.23;11.70;;;9.60;86.20;;;;;;5011319;28;20466;-71
2024/03/19 04:35:57;;;;;;;29.17;12.80;;;9.60;85.40;;;;;;5025516;28;20411;-70
2024/03/19 04:38:22;;;;;;;23.30;11.95;;;9.70;84.60;;;;;;5014009;28;20405;-70
2024/03/19 04:40:48;;;;;;;23.83;11.20;;;9.80;83.40;;;;;;5018210;28;20376;-70
2024/03/19 04:43:13;;;;;;;19.95;11.07;;;9.70;83.80;;;;;;5011315;28;20878;-73
2024/03/19 04:45:39;;;;;;;23.40;11.35;;;9.70;83.70;;;;;;5010859;28;20383;-71
2024/03/19 04:48:05;;;;;;;22.38;12.63;;;9.80;83.80;;;;;;5010673;28;20401;-70
2024/03/19 04:50:31;;;;;;;22.58;11.52;;;9.80;84.00;;;;;;5010373;28;20769;-73
2024/03/19 04:52:56;;;;;;;25.15;12.57;;;9.80;83.50;;;;;;5011361;28;20404;-72
2024/03/19 04:55:22;;;;;;;22.45;12.57;;;9.80;83.80;;;;;;5014434;28;20462;-70
2024/03/19 04:57:48;;;;;;;25.90;12.73;;;9.70;84.30;;;;;;5014392;28;20464;-72
2024/03/19 05:00:17;;;;;;;19.75;11.25;;;9.70;84.20;;;;;;4996533;28;20385;-73
2024/03/19 05:02:44;;;;;;;23.83;11.95;;;9.80;82.10;;;;;;5013922;28;20384;-71
2024/03/19 05:05:10;;;;;;;24.60;11.70;;;9.70;83.20;;;;;;5014259;28;20384;-72
2024/03/19 05:07:35;;;;;;;24.27;11.90;;;9.70;83.90;;;;;;5014219;28;20381;-70
2024/03/19 05:10:01;;;;;;;21.40;11.13;;;9.70;84.10;;;;;;5013423;28;20478;-71
2024/03/19 05:12:27;;;;;;;23.52;12.25;;;9.70;83.80;;;;;;5014121;28;20399;-70
2024/03/19 05:14:52;;;;;;;24.15;11.40;;;9.60;84.80;;;;;;5020529;28;20397;-71
2024/03/19 05:17:18;;;;;;;23.33;11.80;;;9.60;84.70;;;;;;5014193;28;20478;-72
2024/03/19 05:19:43;;;;;;;24.27;11.50;;;9.60;85.20;;;;;;5015361;28;20389;-71
2024/03/19 05:22:09;;;;;;;23.37;11.80;;;9.60;85.80;;;;;;5014624;28;20377;-70
2024/03/19 05:24:35;;;;;;;23.77;11.85;;;9.70;85.10;;;;;;5013966;28;20763;-70
2024/03/19 05:27:02;;;;;;;25.50;12.10;;;9.70;84.50;;;;;;5021023;28;20404;-71
2024/03/19 05:29:27;;;;;;;24.67;11.45;;;9.70;83.90;;;;;;5013843;28;20418;-72
2024/03/19 05:31:53;;;;;;;23.03;11.90;;;9.80;82.90;;;;;;5014142;28;20479;-72
2024/03/19 05:34:19;;;;;;;23.70;12.03;;;9.90;81.60;;;;;;5013626;28;20411;-71
2024/03/19 05:36:44;;;;;;;25.70;12.13;;;9.90;81.90;;;;;;4995793;28;20413;-71
2024/03/19 05:39:10;;;;;;;22.43;11.63;;;9.80;82.90;;;;;;5016452;28;20478;-71
2024/03/19 05:41:36;;;;;;;27.53;12.67;;;9.80;83.00;;;;;;5025214;28;20600;-72
2024/03/19 05:44:02;;;;;;;23.80;11.85;;;9.90;84.00;;;;;;5025611;28;20466;-71
2024/03/19 05:46:28;;;;;;;27.00;12.45;;;9.90;80.70;;;;;;5015357;28;20391;-72
2024/03/19 05:48:54;;;;;;;23.92;13.35;;;9.80;82.40;;;;;;5013909;28;20965;-72
2024/03/19 05:51:19;;;;;;;26.43;12.10;;;9.70;83.30;;;;;;5024687;28;20399;-73
2024/03/19 05:53:46;;;;;;;27.15;13.52;;;9.50;85.10;;;;;;5034446;28;20391;-73
2024/03/19 05:56:13;;;;;;;27.42;12.80;;;9.40;86.70;;;;;;5033930;28;20918;-73
2024/03/19 05:58:38;;;;;;;20.80;12.50;;;9.40;87.00;;;;;;5018628;28;20974;-70
2024/03/19 06:01:04;;;;;;;26.97;13.10;;;9.30;87.30;;;;;;5035403;28;20410;-72
2024/03/19 06:03:34;;;;;;;29.87;13.23;;;9.30;87.60;;;;;;5034239;28;20384;-70
2024/03/19 06:06:08;;;;;;;24.35;13.18;;;9.30;87.60;;;;;;5035463;28;20387;-72
2024/03/19 06:08:34;;;;;;;26.05;13.00;;;9.30;88.60;;;;;;5006935;28;20877;-71
2024/03/19 06:11:00;;;;;;;23.57;12.90;;;9.20;89.20;;;;;;5031831;28;20738;-70
2024/03/19 06:13:26;;;;;;;26.20;12.77;;;9.30;88.90;;;;;;5035807;28;20426;-72
2024/03/19 06:15:51;;;;;;;27.53;13.30;;;9.20;89.60;;;;;;4997385;28;20525;-71
2024/03/19 06:18:17;;;;;;;26.03;13.30;;;9.20;90.20;;;;;;5023257;28;20397;-70
2024/03/19 06:20:45;;;;;;;23.03;13.30;;;9.20;90.20;;;;;;5020074;28;20496;-70
2024/03/19 06:23:11;;;;;;;25.50;12.45;;;9.30;90.40;;;;;;5013618;28;20431;-71
2024/03/19 06:25:38;;;;;;;23.75;12.57;;;9.30;89.70;;;;;;5023891;28;20388;-71
2024/03/19 06:28:04;;;;;;;24.63;12.50;;;9.40;89.00;;;;;;5030950;28;20380;-71
2024/03/19 06:30:31;;;;;;;22.02;12.15;;;9.50;88.90;;;;;;5024880;28;20399;-69
2024/03/19 06:32:56;;;;;;;27.38;14.00;;;9.60;87.10;;;;;;5022527;28;20393;-71
2024/03/19 06:35:22;;;;;;;28.25;13.10;;;9.80;85.30;;;;;;5021203;28;20459;-71
2024/03/19 06:37:47;;;;;;;23.52;11.98;;;9.90;81.60;;;;;;5012537;28;20717;-70
2024/03/19 06:40:13;;;;;;;29.23;12.80;;;10.10;79.60;;;;;;5012419;28;20381;-72
2024/03/19 06:42:39;;;;;;;27.08;13.07;;;10.10;79.10;;;;;;5012227;28;20385;-71
2024/03/19 06:45:08;;;;;;;23.77;12.30;;;10.20;76.50;;;;;;5012561;28;20389;-71
2024/03/19 06:47:35;;;;;;;23.70;12.50;;;10.20;76.90;;;;;;5012745;28;20423;-72
2024/03/19 06:50:00;;;;;;;23.00;12.73;;;10.30;76.50;;;;;;5012541;28;20415;-71
2024/03/19 06:52:26;;;;;;;27.63;12.50;;;10.30;75.50;;;;;;5014552;28;20389;-72
2024/03/19 06:54:51;;;;;;;25.75;12.93;;;10.40;75.30;;;;;;5020394;28;20397;-72
2024/03/19 06:57:17;;;;;;;30.23;12.27;;;10.50;74.50;;;;;;5017296;28;20420;-72
2024/03/19 06:59:43;;;;;;;26.88;12.88;;;10.50;73.10;;;;;;5012272;28;20440;-71
2024/03/19 07:02:13;;;;;;;23.17;12.15;;;10.60;71.50;;;;;;5012085;28;20388;-73
2024/03/19 07:04:38;;;;;;;23.70;11.38;;;10.60;70.00;;;;;;5013441;28;20387;-72
2024/03/19 07:07:04;;;;;;;22.80;11.93;;;10.60;70.80;;;;;;5016735;28;20751;-71
2024/03/19 07:09:31;;;;;;;20.25;11.70;;;10.60;69.60;;;;;;5004613;28;20384;-71
2024/03/19 07:11:58;;;;;;;25.13;12.25;;;10.70;69.60;;;;;;5026987;28;20476;-71
2024/03/19 07:14:24;;;;;;;21.40;11.60;;;10.90;68.60;;;;;;5024446;28;20389;-70
2024/03/19 07:16:50;;;;;;;30.30;13.00;;;11.00;67.30;;;;;;5024898;28;20464;-70
2024/03/19 07:19:15;;;;;;;22.77;11.95;;;11.10;66.90;;;;;;5025125;28;20392;-70
2024/03/19 07:21:41;;;;;;;29.80;11.75;;;11.30;63.70;;;;;;5024173;28;20385;-71
2024/03/19 07:24:07;;;;;;;24.07;12.63;;;11.40;62.70;;;;;;5024161;28;20405;-71
2024/03/19 07:26:33;;;;;;;21.50;11.40;;;11.50;61.10;;;;;;5017772;28;20868;-71
2024/03/19 07:28:58;;;;;;;19.63;11.77;;;11.70;60.50;;;;;;5011132;28;20388;-72
2024/03/19 07:31:24;;;;;;;21.60;12.30;;;11.80;58.30;;;;;;5011814;28;20443;-71
2024/03/19 07:33:49;;;;;;;21.92;11.35;;;12.00;58.10;;;;;;5012828;28;20388;-72
2024/03/19 07:36:15;;;;;;;21.30;11.33;;;12.00;56.80;;;;;;5013605;28;20405;-71
2024/03/19 07:38:41;;;;;;;23.17;10.77;;;12.00;56.80;;;;;;5012936;28;20851;-71
2024/03/19 07:41:07;;;;;;;22.08;11.80;;;12.00;56.20;;;;;;5011403;28;20389;-72
2024/03/19 07:43:33;;;;;;;20.80;11.07;;;11.90;56.90;;;;;;5011636;28;20397;-71
2024/03/19 07:45:59;;;;;;;21.63;11.50;;;11.90;56.80;;;;;;5011050;28;20420;-71
2024/03/19 07:48:25;;;;;;;22.00;11.20;;;11.80;57.20;;;;;;5011008;28;20385;-71
2024/03/19 07:50:51;;;;;;;22.50;12.20;;;11.80;57.70;;;;;;5010167;28;20388;-71
2024/03/19 07:53:16;;;;;;;22.23;11.03;;;11.80;57.80;;;;;;5010448;28;20923;-71
2024/03/19 07:55:44;;;;;;;23.87;11.80;;;11.80;57.40;;;;;;5011056;28;20903;-72
2024/03/19 07:58:09;;;;;;;20.67;11.05;;;11.90;57.30;;;;;;5010712;28;20404;-70
2024/03/19 08:00:37;;;;;;;29.98;12.20;;;11.90;57.30;;;;;;5010681;28;20416;-71
2024/03/19 08:03:04;;;;;;;27.73;11.90;;;12.10;56.50;;;;;;5010425;28;20408;-71
2024/03/19 08:05:29;;;;;;;22.30;12.43;;;12.10;56.20;;;;;;4993206;28;20389;-71
2024/03/19 08:07:56;;;;;;;20.00;10.70;;;12.30;55.70;;;;;;5010449;28;20392;-72
2024/03/19 08:10:22;;;;;;;28.73;11.55;;;12.30;55.00;;;;;;5010030;28;20477;-74
2024/03/19 08:12:47;;;;;;;21.33;11.32;;;12.40;54.60;;;;;;5013299;28;20892;-72
2024/03/19 08:15:13;;;;;;;21.10;11.07;;;12.50;53.70;;;;;;5011151;28;20421;-72
2024/03/19 08:17:39;;;;;;;21.33;10.98;;;12.50;53.60;;;;;;5011094;28;20808;-73
2024/03/19 08:20:08;;;;;;;21.63;11.77;;;12.60;52.70;;;;;;5011162;28;20388;-73
2024/03/19 08:22:34;;;;;;;25.17;11.37;;;12.60;52.80;;;;;;4993322;28;20391;-72
2024/03/19 08:25:01;;;;;;;19.77;10.70;;;12.60;52.90;;;;;;5011642;28;20432;-73
2024/03/19 08:27:26;;;;;;;22.60;11.40;;;12.60;52.70;;;;;;5011206;28;20397;-71
2024/03/19 08:29:52;;;;;;;21.67;10.07;;;12.50;53.30;;;;;;5013970;28;20392;-72
2024/03/19 08:32:18;;;;;;;24.77;11.43;;;12.60;53.20;;;;;;5014635;28;20641;-72
2024/03/19 08:34:43;;;;;;;19.60;10.43;;;12.60;53.40;;;;;;5014577;28;20475;-73
2024/03/19 08:37:10;;;;;;;18.23;11.00;;;12.70;53.50;;;;;;5014302;28;20797;-73
2024/03/19 08:39:35;;;;;;;19.73;10.97;;;12.70;52.70;;;;;;5014736;28;20879;-73
2024/03/19 08:42:01;;;;;;;27.37;11.47;;;12.80;52.20;;;;;;5014506;28;20388;-71
2024/03/19 08:44:26;;;;;;;22.00;10.97;;;12.90;51.90;;;;;;5014308;28;20475;-70
2024/03/19 08:46:52;;;;;;;21.92;10.35;;;13.00;50.10;;;;;;5014206;28;20400;-71
2024/03/19 08:49:18;;;;;;;23.33;11.00;;;13.30;49.40;;;;;;5014058;28;20415;-71
2024/03/19 08:51:43;;;;;;;20.40;10.85;;;13.40;48.40;;;;;;5014436;28;20381;-72
2024/03/19 08:54:09;;;;;;;20.80;10.37;;;13.70;47.50;;;;;;5014359;28;20405;-70
2024/03/19 08:56:36;;;;;;;20.77;10.03;;;13.80;45.30;;;;;;5013948;28;20840;-70
2024/03/19 08:59:03;;;;;;;18.77;10.73;;;14.00;44.10;;;;;;5013770;28;20392;-71
2024/03/19 09:01:28;;;;;;;24.23;10.63;;;14.20;43.10;;;;;;5013551;28;20381;-72
2024/03/19 09:03:54;;;;;;;22.03;10.10;;;14.30;42.70;;;;;;4995989;28;20387;-74
2024/03/19 09:06:19;;;;;;;18.00;10.17;;;14.50;42.50;;;;;;5014181;28;20403;-73
2024/03/19 09:08:46;;;;;;;20.42;9.82;;;14.70;40.60;;;;;;5014126;28;20407;-71
2024/03/19 09:11:11;;;;;;;21.85;9.70;;;14.70;40.40;;;;;;5013635;28;20448;-72
2024/03/19 09:13:37;;;;;;;17.92;9.13;;;14.70;39.80;;;;;;5013976;28;20385;-72
2024/03/19 09:16:04;;;;;;;24.63;10.00;;;14.80;39.50;;;;;;5013913;28;20407;-73
2024/03/19 09:18:30;;;;;;;22.15;10.77;;;14.90;39.60;;;;;;5013555;28;20385;-73
2024/03/19 09:20:55;;;;;;;18.25;9.38;;;15.10;39.30;;;;;;5013205;28;20400;-72
2024/03/19 09:23:23;;;;;;;19.08;9.52;;;15.20;38.50;;;;;;5013351;28;20401;-71
2024/03/19 09:25:49;;;;;;;23.20;10.38;;;15.30;38.30;;;;;;5013801;28;20895;-69
2024/03/19 09:28:15;;;;;;;18.60;9.32;;;15.40;37.60;;;;;;5013972;28;20399;-71
2024/03/19 09:30:41;;;;;;;20.23;8.95;;;15.50;36.90;;;;;;5013123;28;20788;-70
2024/03/19 09:33:09;;;;;;;19.87;9.43;;;15.70;36.50;;;;;;4995881;28;20432;-72
2024/03/19 09:35:35;;;;;;;18.58;9.02;;;15.80;36.00;;;;;;5014307;28;20389;-71
2024/03/19 09:38:01;;;;;;;19.13;9.00;;;15.80;35.20;;;;;;5014913;28;20388;-76
2024/03/19 09:40:27;;;;;;;22.80;9.85;;;15.90;35.50;;;;;;5013449;28;20387;-72
2024/03/19 09:42:53;;;;;;;20.67;9.73;;;16.10;34.90;;;;;;5013597;28;20381;-74
2024/03/19 09:45:27;;;;;;;22.63;8.33;;;16.30;34.80;;;;;;5013113;28;20392;-73
2024/03/19 09:47:55;;;;;;;18.75;7.45;;;16.50;34.20;;;;;;5012999;28;20393;-72
2024/03/19 09:50:21;;;;;;;15.45;8.13;;;16.80;33.20;;;;;;5012943;28;20384;-74
2024/03/19 09:52:52;;;;;;;16.67;8.02;;;16.80;32.60;;;;;;4995469;28;20756;-74
2024/03/19 09:55:18;;;;;;;21.83;8.30;;;17.00;32.60;;;;;;5013034;28;20376;-72
2024/03/19 09:57:46;;;;;;;22.77;8.60;;;17.00;31.50;;;;;;5012876;28;20445;-72
2024/03/19 10:00:45;;;;;;;19.17;7.90;;;16.90;31.70;;;;;;5012642;28;20389;-73
2024/03/19 10:03:11;;;;;;;16.25;8.20;;;16.80;31.80;;;;;;5001928;28;20408;-73
2024/03/19 10:05:37;;;;;;;21.90;8.60;;;16.80;32.50;;;;;;5013353;28;20385;-73
2024/03/19 10:08:04;;;;;;;15.63;6.93;;;16.80;32.00;;;;;;5014943;28;20408;-74
2024/03/19 10:10:30;;;;;;;22.27;8.27;;;17.00;31.70;;;;;;5013945;28;20391;-71
2024/03/19 10:12:56;;;;;;;16.90;7.70;;;17.00;30.90;;;;;;5012672;28;20456;-74
2024/03/19 10:15:24;;;;;;;14.75;6.47;;;17.10;31.10;;;;;;5012687;28;20392;-73
2024/03/19 10:17:51;;;;;;;12.98;6.50;;;17.40;31.30;;;;;;5012753;28;20397;-72
2024/03/19 10:20:20;;;;;;;12.40;6.50;;;17.50;30.20;;;;;;5013458;28;20473;-72
2024/03/19 10:22:47;;;;;;;17.63;7.03;;;17.50;29.70;;;;;;5013385;28;21052;-73
2024/03/19 10:25:16;;;;;;;21.42;7.40;;;17.50;29.70;;;;;;5013948;28;20864;-72
2024/03/19 10:27:45;;;;;;;20.95;7.32;;;17.50;29.40;;;;;;5014061;28;20384;-72
2024/03/19 10:30:16;;;;;;;16.10;7.80;;;17.50;28.90;;;;;;5016262;28;20396;-74
2024/03/19 10:32:43;;;;;;;18.15;7.00;;;17.60;28.70;;;;;;5021131;28;20385;-72
2024/03/19 10:35:15;;;;;;;16.25;7.30;;;17.90;28.00;;;;;;5013100;28;20392;-72
2024/03/19 10:37:41;;;;;;;12.02;6.38;;;17.90;27.50;;;;;;5012418;28;20420;-72
2024/03/19 10:40:13;;;;;;;14.75;7.07;;;17.80;27.90;;;;;;5011963;28;20867;-73
2024/03/19 10:42:41;;;;;;;17.02;7.97;;;18.10;27.50;;;;;;5011892;28;20384;-72
2024/03/19 10:45:17;;;;;;;21.52;7.55;;;18.30;26.70;;;;;;5011985;28;20899;-71
2024/03/19 10:47:44;;;;;;;14.93;7.43;;;18.40;25.80;;;;;;5012333;28;20397;-71
2024/03/19 10:50:15;;;;;;;16.52;6.93;;;18.50;25.00;;;;;;5010779;28;20404;-72
2024/03/19 10:53:01;;;;;;;16.92;7.03;;;18.40;25.00;;;;;;5011715;28;20380;-72
2024/03/19 10:55:30;;;;;;;13.60;6.70;;;18.30;25.50;;;;;;5011702;28;20836;-72
2024/03/19 10:58:03;;;;;;;14.27;5.68;;;18.20;25.80;;;;;;5011761;28;20401;-72
2024/03/19 11:00:30;;;;;;;16.38;5.70;;;17.90;25.90;;;;;;5012146;28;20732;-71
2024/03/19 11:02:59;;;;;;;12.07;5.70;;;17.60;26.20;;;;;;5011387;28;20661;-71
2024/03/19 11:05:26;;;;;;;14.57;6.78;;;17.60;26.80;;;;;;5012073;28;20806;-72
2024/03/19 11:07:54;;;;;;;19.00;7.95;;;17.70;26.90;;;;;;5011755;28;20420;-71
2024/03/19 11:10:30;;;;;;;13.07;6.93;;;17.70;27.10;;;;;;5011402;28;20701;-74
2024/03/19 11:13:25;;;;;;;14.40;5.90;;;17.60;27.30;;;;;;5012407;28;20482;-72
2024/03/19 11:15:50;;;;;;;13.50;6.32;;;17.70;26.20;;;;;;5008450;28;20424;-72
2024/03/19 11:18:18;;;;;;;19.23;7.47;;;17.70;26.40;;;;;;5014276;28;20397;-74
2024/03/19 11:20:52;;;;;;;16.35;6.20;;;18.00;25.80;;;;;;5011999;28;20460;-71
2024/03/19 11:23:23;;;;;;;15.60;6.00;;;18.00;26.30;;;;;;5012366;28;20400;-71
2024/03/19 11:25:50;;;;;;;11.80;5.40;;;18.00;25.70;;;;;;5011620;28;20886;-71
2024/03/19 11:28:36;;;;;;;23.13;7.88;;;18.00;25.50;;;;;;5011599;28;20387;-71
2024/03/19 11:31:06;;;;;;;18.02;5.95;;;18.10;25.80;;;;;;5011149;28;20466;-72
2024/03/19 11:33:38;;;;;;;12.95;5.93;;;17.90;25.00;;;;;;5011369;28;20737;-73
2024/03/19 11:36:04;;;;;;;11.77;5.60;;;17.80;25.80;;;;;;5011090;28;20404;-71
2024/03/19 11:38:31;;;;;;;13.52;5.38;;;17.70;26.00;;;;;;5011178;28;20389;-72
2024/03/19 11:40:58;;;;;;;10.98;5.60;;;17.70;25.30;;;;;;5010921;28;20381;-73
2024/03/19 11:43:25;;;;;;;12.23;5.50;;;17.60;26.40;;;;;;5011935;28;20431;-72
2024/03/19 11:45:51;;;;;;;13.40;5.30;;;17.60;27.00;;;;;;5011453;28;20408;-71
2024/03/19 11:48:19;;;;;;;13.38;4.90;;;17.70;25.60;;;;;;4993940;28;20403;-70
2024/03/19 11:50:53;;;;;;;10.83;3.90;;;17.70;25.70;;;;;;5011218;28;20420;-72
2024/03/19 11:53:19;;;;;;;15.27;3.80;;;17.80;24.40;;;;;;5011264;28;20811;-73
2024/03/19 11:55:48;;;;;;;8.52;3.35;;;17.90;23.50;;;;;;5011595;28;20880;-72
2024/03/19 11:58:14;;;;;;;13.00;3.80;;;17.90;23.50;;;;;;5012278;28;20396;-73
2024/03/19 12:00:40;;;;;;;9.03;3.47;;;17.90;23.00;;;;;;5011170;28;20389;-70
2024/03/19 12:03:06;;;;;;;8.63;3.40;;;17.90;23.30;;;;;;5014181;28;20384;-71
2024/03/19 12:05:32;;;;;;;12.75;3.88;;;18.00;22.60;;;;;;4998374;28;20454;-72
2024/03/19 12:08:00;;;;;;;12.20;4.57;;;17.90;23.30;;;;;;5017424;28;20423;-73
2024/03/19 12:10:26;;;;;;;11.70;4.20;;;18.00;24.20;;;;;;5015921;28;20393;-71
2024/03/19 12:12:55;;;;;;;9.70;3.83;;;18.00;24.20;;;;;;5018613;28;20769;-71
2024/03/19 12:15:23;;;;;;;8.65;3.70;;;18.10;22.90;;;;;;5015871;28;20412;-71
2024/03/19 12:17:50;;;;;;;11.20;3.88;;;18.10;23.20;;;;;;5017008;28;20412;-73
2024/03/19 12:20:17;;;;;;;11.85;4.00;;;18.00;22.50;;;;;;5017158;28;20473;-71
2024/03/19 12:22:51;;;;;;;13.50;4.20;;;18.10;23.10;;;;;;4998924;28;20427;-73
2024/03/19 12:25:18;;;;;;;6.18;3.38;;;17.90;23.50;;;;;;5017066;28;20886;-71
2024/03/19 12:27:45;;;;;;;12.03;4.00;;;17.80;22.50;;;;;;5018256;28;20539;-69
2024/03/19 12:30:15;;;;;;;12.77;4.13;;;17.70;23.40;;;;;;5017876;28;20476;-72